Record high temperature 100.4°F Record low temperature 10.6°F Record high gust 45 mph Record high average 23.3 mph Record daily rain 11.65 in. Record low windchill 2.7°F Record high barometer 30.773 in. Record low barometer 29.116 in.
Daily high pressure 29.891 in. Daily low pressure 29.621 in. Daily low windchill 41.8°F Daily high heat index 56.4°F Daily high gust speed 23.0 mph S Daily high average speed 13.4 mph WSW
Forecast: mostly cloudy and cooler. precipitation possible within 12 hours, possibly heavy at times. windy.
On the Greenway Weather Data - Tigard OR
LAST READING AT TIME: 9:20 PM DATE: December 20 2014, time of next update: 9:21 pm
Current WeatherNight time/Moderate drizzle Current Temperature 56.4°F (13.6°C), Apparent temp 55.3°F
Maximum Temperature (since midnight)56.4°F at: 9:01 PM Minimum Temperature (since midnight)46.4°F at: 2:40 AM
Average windspeed (ten minute)4.6 mph Wind Direction (ten minute)SSW (208°)
Windchill Temperature 56.4°F Maximum Gust (last hour)20 mph at: 8:55 PM
Maximum Gust (since midnight)23 mph at: 1:19 PM Maximum 1 minute average (since midnight)13.4 mph at: 1:20 PM
Rainfall (last hour)0.01 in. (0.3 mm) Rainfall (since midnight)1.26 in. (32.0 mm) at 9:17 PM
Rainfall This month 5.29 in. (134.4 mm) Rainfall To date this year 15.77 in. (400.6 mm)
Maximum rain per minute (last hour)0.01 in/min Maximum rain per hour (last 6 hours)0.05 in/hour
Yesterdays rainfall 0.16 in DewPoint 54.4°F (Wet Bulb :55.3°F )
Humidity 93 %, Humidex 60.9°F Barometer corrected to msl29.682 in. (1005.2 hPa)
Pressure change +0.01 in. (last hour) Trend (last hour)STEADY
Pressure change (last 12 hours)-0.02 in Pressure change (last 6 hours)+0.04 in

This page is updated from recent data collected by a DAVIS VANTAGE PRO weather station Use the Reload or Refresh facility on your browser to retrieve the latest data.


Click here for the last 24 hour graph
Click here for the last 48 hour graph
Click here for the last 72 hour graph
Click here for the month to date graph


Weather report/Warning/Metars

PORTLAND-HILLSBORO AIRPORT, OR, United States (KHIO) 45-33N 122-57W 68M
Dec 20, 2014 - 11:53 PM EST / 2014.12.21 0453 UTC
Wind: from the SSW (200 degrees) at 7 MPH (6 KT):0
Visibility: 10 mile(s):0
Sky conditions: overcast
Weather: light rain
Precipitation last hour: 0.01 inches
Temperature: 55.9 F (13.3 C)
Dew Point: 55.0 F (12.8 C)
Relative Humidity: 96%
Pressure (altimeter): 29.65 in. Hg (1004 hPa)
ob: KHIO 210453Z 20006KT 10SM -RA OVC090 13/13 A2965 RMK AO2 SLP040 P0001 T01330128
cycle: 5
PORTLAND INTERNATIONAL  AIRPORT, OR, United States (KPDX) 45-35N 122-36W 7M
Dec 20, 2014 - 11:53 PM EST / 2014.12.21 0453 UTC
Wind: from the SSW (200 degrees) at 10 MPH (9 KT):0
Visibility: 10 mile(s):0
Sky conditions: overcast
Weather: light rain
Precipitation last hour: 0.01 inches
Temperature: 57.0 F (13.9 C)
Dew Point: 55.0 F (12.8 C)
Relative Humidity: 93%
Pressure (altimeter): 29.66 in. Hg (1004 hPa)
ob: KPDX 210453Z 20009KT 10SM -RA SCT015 BKN050 OVC095 14/13 A2966 RMK AO2 SLP042 P0001 T01390128
cycle: 5
PORTLAND-TROUTDALE AIRPORT, OR, United States (KTTD) 45-33N 122-25W 14M
Dec 20, 2014 - 11:53 PM EST / 2014.12.21 0453 UTC
Wind: from the SSW (210 degrees) at 17 MPH (15 KT) gusting to 28 MPH (24 KT):0
Visibility: 10 mile(s):0
Sky conditions: overcast
Weather: light rain
Precipitation last hour: 0.02 inches
Temperature: 57.9 F (14.4 C)
Dew Point: 55.0 F (12.8 C)
Relative Humidity: 90%
Pressure (altimeter): 29.63 in. Hg (1003 hPa)
ob: KTTD 210453Z 21015G24KT 10SM -RA SCT018 SCT050 OVC095 14/13 A2963 RMK AO2 SLP034 P0002 T01440128
cycle: 5
MCMINNVILLE MUNICIPAL AIRPORT , OR, United States (KMMV) 45-12N 123-08W 48M
Dec 20, 2014 - 11:53 PM EST / 2014.12.21 0453 UTC
Wind: from the SSW (200 degrees) at 12 MPH (10 KT):0
Visibility: 10 mile(s):0
Sky conditions: overcast
Weather: light rain
Precipitation last hour: 0.03 inches
Temperature: 57.0 F (13.9 C)
Dew Point: 55.0 F (12.8 C)
Relative Humidity: 93%
Pressure (altimeter): 29.71 in. Hg (1006 hPa)
ob: KMMV 210453Z AUTO 20010KT 10SM -RA BKN013 BKN029 OVC100 14/13 A2971 RMK AO2 SLP060 P0003 T01390128 
cycle: 5
SALEM MCNARY FIELD, OR, United States (KSLE) 44-54N 123-00W 59M
Dec 20, 2014 - 11:56 PM EST / 2014.12.21 0456 UTC
Wind: from the SSW (200 degrees) at 17 MPH (15 KT) gusting to 23 MPH (20 KT):0
Visibility: 10 mile(s):0
Sky conditions: overcast
Weather: light rain
Precipitation last hour: 0.03 inches
Temperature: 57.0 F (13.9 C)
Dew Point: 54.0 F (12.2 C)
Relative Humidity: 89%
Pressure (altimeter): 29.72 in. Hg (1006 hPa)
ob: KSLE 210456Z AUTO 20015G20KT 10SM -RA BKN015 OVC020 14/12 A2972 RMK AO2 SLP062 P0003 T01390122
cycle: 5


Sunset at:
4:29 pm

Moonrise at:
6:03 am 12/20/14

Moonset at:
3:44 pm 12/20/14

First Quarter  29 November 2014
Full moon  6 December 2014
Last Quarter14 December 2014
New moon 22 December 2014
Moon age: 27 days,16 hours,20 minutes,4%
Hours of possible daylight today was 08:42



Use the RELOAD facility on your browser to retrieve the latest data.

Click here for current Fire weather info
Click here for the daily CLIMATOLOGICAL SUMMARY
Click here for a daily update of the averages/extremes to date for the month




Created by "Weather Display" software version 10.37R Build 81 at this start time/date 11:58 am 11/1/2014




On The Greenway Weather Web Site

 
 
HELP US OUT
Help us keep this weather station on the web. for the Tigard / Portland internet users to use. If you would like to help, click the donate button below
 
This site is purely funded by donations and by myself (Ray Cooper)
Anything you can do will help keep this station on the net
Average cost per year is $665 to publish and host this site excluding the cost of the weather equipment
Buyastrostuff.com is kind enough to host our DNS and email at no cost.
THANKS GUYS & Gals for helping
Have a Question,or just want to talk. Contact me at:
Ray Cooper @ Buyastrostuff.com